sensor_id;sensor_type;location;lat;lon;timestamp;pressure;altitude;pressure_sealevel;temperature;humidity
21086;BME280;72320;50.082;20.000;2024-03-23T00:52:44;98435.30;;;10.99;61.22
21086;BME280;72320;50.082;20.000;2024-03-23T00:55:11;98429.02;;;11.05;61.26
21086;BME280;72320;50.082;20.000;2024-03-23T00:57:57;98426.81;;;11.08;61.05
21086;BME280;72320;50.082;20.000;2024-03-23T01:00:42;98429.95;;;11.11;60.95
21086;BME280;72320;50.082;20.000;2024-03-23T01:03:28;98428.24;;;11.12;60.84
21086;BME280;72320;50.082;20.000;2024-03-23T01:06:14;98430.32;;;11.08;60.97
21086;BME280;72320;50.082;20.000;2024-03-23T01:08:59;98429.77;;;11.06;61.11
21086;BME280;72320;50.082;20.000;2024-03-23T01:11:45;98425.92;;;11.00;61.16
21086;BME280;72320;50.082;20.000;2024-03-23T01:14:31;98423.02;;;10.94;61.26
21086;BME280;72320;50.082;20.000;2024-03-23T01:17:16;98421.73;;;10.87;61.28
21086;BME280;72320;50.082;20.000;2024-03-23T01:20:02;98417.38;;;10.84;61.49
21086;BME280;72320;50.082;20.000;2024-03-23T01:22:48;98417.79;;;10.84;61.66
21086;BME280;72320;50.082;20.000;2024-03-23T01:25:34;98415.40;;;10.89;61.60
21086;BME280;72320;50.082;20.000;2024-03-23T01:28:21;98412.81;;;10.92;61.60
21086;BME280;72320;50.082;20.000;2024-03-23T01:31:07;98408.30;;;10.93;61.72
21086;BME280;72320;50.082;20.000;2024-03-23T01:33:52;98409.84;;;10.89;61.86
21086;BME280;72320;50.082;20.000;2024-03-23T01:36:38;98406.31;;;10.86;61.96
21086;BME280;72320;50.082;20.000;2024-03-23T01:39:05;98402.78;;;10.89;61.87
21086;BME280;72320;50.082;20.000;2024-03-23T01:41:30;98399.20;;;10.95;61.95
21086;BME280;72320;50.082;20.000;2024-03-23T01:43:56;98398.59;;;10.99;61.82
21086;BME280;72320;50.082;20.000;2024-03-23T01:46:23;98400.45;;;11.03;61.95
21086;BME280;72320;50.082;20.000;2024-03-23T01:48:49;98396.51;;;11.04;61.83
21086;BME280;72320;50.082;20.000;2024-03-23T01:51:16;98392.64;;;11.01;61.86
21086;BME280;72320;50.082;20.000;2024-03-23T01:53:42;98396.30;;;10.99;61.84
21086;BME280;72320;50.082;20.000;2024-03-23T01:56:08;98393.37;;;11.01;61.78
21086;BME280;72320;50.082;20.000;2024-03-23T01:58:34;98393.66;;;11.01;61.51
21086;BME280;72320;50.082;20.000;2024-03-23T02:01:00;98395.54;;;10.91;61.27
21086;BME280;72320;50.082;20.000;2024-03-23T02:03:27;98396.36;;;10.87;61.15
21086;BME280;72320;50.082;20.000;2024-03-23T02:05:54;98395.78;;;10.88;61.05
21086;BME280;72320;50.082;20.000;2024-03-23T02:08:23;98387.73;;;10.93;60.55
21086;BME280;72320;50.082;20.000;2024-03-23T02:10:50;98383.79;;;10.92;60.16
21086;BME280;72320;50.082;20.000;2024-03-23T02:13:18;98385.69;;;10.91;59.90
21086;BME280;72320;50.082;20.000;2024-03-23T02:15:45;98381.35;;;10.92;59.38
21086;BME280;72320;50.082;20.000;2024-03-23T02:18:33;98374.88;;;10.94;59.25
21086;BME280;72320;50.082;20.000;2024-03-23T02:20:59;98371.64;;;11.02;58.92
21086;BME280;72320;50.082;20.000;2024-03-23T02:23:45;98366.82;;;11.07;58.71
21086;BME280;72320;50.082;20.000;2024-03-23T02:26:31;98365.42;;;11.11;58.51
21086;BME280;72320;50.082;20.000;2024-03-23T02:29:12;98366.00;;;11.14;58.53
21086;BME280;72320;50.082;20.000;2024-03-23T02:31:57;98359.61;;;11.16;58.38
21086;BME280;72320;50.082;20.000;2024-03-23T02:34:43;98350.37;;;11.17;58.36
21086;BME280;72320;50.082;20.000;2024-03-23T02:37:28;98343.14;;;11.18;58.43
21086;BME280;72320;50.082;20.000;2024-03-23T02:40:15;98335.20;;;11.12;58.47
21086;BME280;72320;50.082;20.000;2024-03-23T02:43:02;98334.98;;;11.07;58.49
21086;BME280;72320;50.082;20.000;2024-03-23T02:45:48;98336.75;;;11.06;58.65
21086;BME280;72320;50.082;20.000;2024-03-23T02:48:36;98332.81;;;11.05;58.83
21086;BME280;72320;50.082;20.000;2024-03-23T02:51:21;98336.27;;;11.05;58.97
21086;BME280;72320;50.082;20.000;2024-03-23T02:54:07;98330.98;;;11.02;59.20
21086;BME280;72320;50.082;20.000;2024-03-23T02:56:53;98330.84;;;11.01;59.29
21086;BME280;72320;50.082;20.000;2024-03-23T02:59:39;98331.25;;;11.03;59.30
21086;BME280;72320;50.082;20.000;2024-03-23T03:02:25;98328.85;;;11.01;59.36
21086;BME280;72320;50.082;20.000;2024-03-23T03:04:51;98335.81;;;11.02;59.39
21086;BME280;72320;50.082;20.000;2024-03-23T03:07:38;98333.46;;;11.02;59.44
21086;BME280;72320;50.082;20.000;2024-03-23T03:10:24;98334.25;;;11.00;59.62
21086;BME280;72320;50.082;20.000;2024-03-23T03:13:09;98333.42;;;10.98;59.74
21086;BME280;72320;50.082;20.000;2024-03-23T03:15:55;98332.09;;;10.96;59.83
21086;BME280;72320;50.082;20.000;2024-03-23T03:18:43;98330.27;;;10.96;59.93
21086;BME280;72320;50.082;20.000;2024-03-23T03:21:29;98314.27;;;10.94;59.92
21086;BME280;72320;50.082;20.000;2024-03-23T03:24:14;98311.13;;;10.91;60.06
21086;BME280;72320;50.082;20.000;2024-03-23T03:27:00;98304.42;;;10.91;60.07
21086;BME280;72320;50.082;20.000;2024-03-23T03:29:46;98303.16;;;10.90;60.16
21086;BME280;72320;50.082;20.000;2024-03-23T03:32:12;98298.37;;;10.92;60.17
21086;BME280;72320;50.082;20.000;2024-03-23T03:34:58;98299.37;;;10.85;60.15
21086;BME280;72320;50.082;20.000;2024-03-23T03:37:44;98297.05;;;10.81;60.33
21086;BME280;72320;50.082;20.000;2024-03-23T03:40:30;98293.76;;;10.77;60.42
21086;BME280;72320;50.082;20.000;2024-03-23T03:43:16;98295.04;;;10.72;60.48
21086;BME280;72320;50.082;20.000;2024-03-23T03:46:02;98293.23;;;10.71;60.67
21086;BME280;72320;50.082;20.000;2024-03-23T03:48:50;98289.92;;;10.67;60.79
21086;BME280;72320;50.082;20.000;2024-03-23T03:51:35;98284.93;;;10.63;61.07
21086;BME280;72320;50.082;20.000;2024-03-23T03:54:21;98278.63;;;10.59;61.05
21086;BME280;72320;50.082;20.000;2024-03-23T03:57:07;98274.54;;;10.56;61.28
21086;BME280;72320;50.082;20.000;2024-03-23T03:59:54;98277.04;;;10.55;61.55
21086;BME280;72320;50.082;20.000;2024-03-23T04:02:40;98267.73;;;10.53;61.72
21086;BME280;72320;50.082;20.000;2024-03-23T04:05:25;98264.27;;;10.50;61.77
21086;BME280;72320;50.082;20.000;2024-03-23T04:08:11;98268.30;;;10.49;61.97
21086;BME280;72320;50.082;20.000;2024-03-23T04:10:57;98273.46;;;10.52;62.16
21086;BME280;72320;50.082;20.000;2024-03-23T04:13:43;98270.98;;;10.50;62.25
21086;BME280;72320;50.082;20.000;2024-03-23T04:16:34;98272.99;;;10.49;62.27
21086;BME280;72320;50.082;20.000;2024-03-23T04:19:20;98270.23;;;10.49;62.31
21086;BME280;72320;50.082;20.000;2024-03-23T04:22:06;98279.11;;;10.47;62.45
21086;BME280;72320;50.082;20.000;2024-03-23T04:24:56;98270.73;;;10.46;62.61
21086;BME280;72320;50.082;20.000;2024-03-23T04:27:41;98279.55;;;10.48;62.47
21086;BME280;72320;50.082;20.000;2024-03-23T04:30:27;98279.90;;;10.47;62.67
21086;BME280;72320;50.082;20.000;2024-03-23T04:33:13;98271.05;;;10.48;62.73
21086;BME280;72320;50.082;20.000;2024-03-23T04:35:59;98269.19;;;10.44;62.91
21086;BME280;72320;50.082;20.000;2024-03-23T04:38:47;98264.50;;;10.38;63.09
21086;BME280;72320;50.082;20.000;2024-03-23T04:41:33;98260.45;;;10.34;63.37
21086;BME280;72320;50.082;20.000;2024-03-23T04:44:19;98267.86;;;10.34;63.61
21086;BME280;72320;50.082;20.000;2024-03-23T04:47:05;98269.23;;;10.35;63.93
21086;BME280;72320;50.082;20.000;2024-03-23T04:49:50;98262.67;;;10.35;64.11
21086;BME280;72320;50.082;20.000;2024-03-23T04:52:36;98259.13;;;10.33;64.39
21086;BME280;72320;50.082;20.000;2024-03-23T04:55:22;98254.56;;;10.29;64.64
21086;BME280;72320;50.082;20.000;2024-03-23T04:58:07;98251.92;;;10.28;64.92
21086;BME280;72320;50.082;20.000;2024-03-23T05:00:57;98250.14;;;10.29;65.20
21086;BME280;72320;50.082;20.000;2024-03-23T05:03:23;98244.88;;;10.33;65.50
21086;BME280;72320;50.082;20.000;2024-03-23T05:05:50;98234.75;;;10.38;65.56
21086;BME280;72320;50.082;20.000;2024-03-23T05:08:16;98231.44;;;10.41;65.80
21086;BME280;72320;50.082;20.000;2024-03-23T05:10:42;98239.21;;;10.39;65.86
21086;BME280;72320;50.082;20.000;2024-03-23T05:13:09;98235.49;;;10.44;66.18
21086;BME280;72320;50.082;20.000;2024-03-23T05:15:36;98224.98;;;10.47;66.00
21086;BME280;72320;50.082;20.000;2024-03-23T05:18:02;98223.42;;;10.52;66.22
21086;BME280;72320;50.082;20.000;2024-03-23T05:20:28;98228.30;;;10.59;66.13
21086;BME280;72320;50.082;20.000;2024-03-23T05:22:57;98224.20;;;10.61;65.98
21086;BME280;72320;50.082;20.000;2024-03-23T05:25:23;98220.48;;;10.68;65.75
21086;BME280;72320;50.082;20.000;2024-03-23T05:27:48;98216.30;;;10.75;65.47
21086;BME280;72320;50.082;20.000;2024-03-23T05:30:15;98215.05;;;10.80;65.24
21086;BME280;72320;50.082;20.000;2024-03-23T05:32:41;98218.71;;;10.87;65.16
21086;BME280;72320;50.082;20.000;2024-03-23T05:35:09;98216.52;;;10.95;64.95
21086;BME280;72320;50.082;20.000;2024-03-23T05:37:35;98211.52;;;10.98;64.77
21086;BME280;72320;50.082;20.000;2024-03-23T05:40:20;98208.55;;;10.99;64.65
21086;BME280;72320;50.082;20.000;2024-03-23T05:43:08;98195.33;;;10.93;64.69
21086;BME280;72320;50.082;20.000;2024-03-23T05:45:42;98187.39;;;10.94;64.75
21086;BME280;72320;50.082;20.000;2024-03-23T05:48:28;98194.36;;;10.93;64.84
21086;BME280;72320;50.082;20.000;2024-03-23T05:51:14;98198.75;;;10.91;65.22
21086;BME280;72320;50.082;20.000;2024-03-23T05:54:00;98198.56;;;10.90;65.36
21086;BME280;72320;50.082;20.000;2024-03-23T05:56:26;98198.27;;;10.93;65.56
21086;BME280;72320;50.082;20.000;2024-03-23T05:59:12;98200.23;;;10.87;65.45
21086;BME280;72320;50.082;20.000;2024-03-23T06:01:58;98196.22;;;10.82;65.63
21086;BME280;72320;50.082;20.000;2024-03-23T06:04:45;98195.02;;;10.83;65.75
21086;BME280;72320;50.082;20.000;2024-03-23T06:07:32;98189.83;;;10.72;65.72
21086;BME280;72320;50.082;20.000;2024-03-23T06:10:19;98187.63;;;10.67;65.81
21086;BME280;72320;50.082;20.000;2024-03-23T06:13:10;98187.95;;;10.71;65.88
21086;BME280;72320;50.082;20.000;2024-03-23T06:15:57;98184.96;;;10.83;65.91
21086;BME280;72320;50.082;20.000;2024-03-23T06:18:42;98178.50;;;10.85;65.84
21086;BME280;72320;50.082;20.000;2024-03-23T06:21:16;98182.02;;;10.88;65.81
21086;BME280;72320;50.082;20.000;2024-03-23T06:24:02;98178.24;;;10.93;65.66
21086;BME280;72320;50.082;20.000;2024-03-23T06:26:48;98172.24;;;10.97;65.69
21086;BME280;72320;50.082;20.000;2024-03-23T06:29:34;98163.95;;;11.01;65.68
21086;BME280;72320;50.082;20.000;2024-03-23T06:32:20;98162.60;;;11.09;65.72
21086;BME280;72320;50.082;20.000;2024-03-23T06:35:07;98169.96;;;11.12;65.53
21086;BME280;72320;50.082;20.000;2024-03-23T06:37:52;98165.48;;;11.29;65.40
21086;BME280;72320;50.082;20.000;2024-03-23T06:40:39;98158.13;;;11.45;65.26
21086;BME280;72320;50.082;20.000;2024-03-23T06:43:24;98151.08;;;11.47;64.82
21086;BME280;72320;50.082;20.000;2024-03-23T06:46:10;98153.57;;;11.51;64.42
21086;BME280;72320;50.082;20.000;2024-03-23T06:48:56;98160.82;;;11.65;63.90
21086;BME280;72320;50.082;20.000;2024-03-23T06:51:42;98167.14;;;11.83;63.49
21086;BME280;72320;50.082;20.000;2024-03-23T06:54:28;98170.63;;;11.98;62.99
21086;BME280;72320;50.082;20.000;2024-03-23T06:56:54;98167.55;;;12.09;62.53
21086;BME280;72320;50.082;20.000;2024-03-23T06:59:40;98166.41;;;12.32;62.06
21086;BME280;72320;50.082;20.000;2024-03-23T07:02:26;98166.02;;;12.52;61.43
21086;BME280;72320;50.082;20.000;2024-03-23T07:05:12;98162.70;;;12.72;61.20
21086;BME280;72320;50.082;20.000;2024-03-23T07:07:58;98160.30;;;12.88;61.06
21086;BME280;72320;50.082;20.000;2024-03-23T07:10:43;98157.79;;;13.02;60.85
21086;BME280;72320;50.082;20.000;2024-03-23T07:13:29;98153.03;;;13.05;60.35
21086;BME280;72320;50.082;20.000;2024-03-23T07:16:16;98149.25;;;13.07;59.85
21086;BME280;72320;50.082;20.000;2024-03-23T07:19:02;98150.07;;;13.05;59.33
21086;BME280;72320;50.082;20.000;2024-03-23T07:21:48;98143.31;;;12.96;58.96
21086;BME280;72320;50.082;20.000;2024-03-23T07:24:34;98148.84;;;12.95;58.74
21086;BME280;72320;50.082;20.000;2024-03-23T07:27:20;98148.14;;;13.11;58.73
21086;BME280;72320;50.082;20.000;2024-03-23T07:30:09;98143.33;;;13.34;58.43
21086;BME280;72320;50.082;20.000;2024-03-23T07:32:35;98144.02;;;13.46;57.92
21086;BME280;72320;50.082;20.000;2024-03-23T07:35:21;98138.66;;;13.47;57.33
21086;BME280;72320;50.082;20.000;2024-03-23T07:38:07;98136.32;;;13.54;57.07
21086;BME280;72320;50.082;20.000;2024-03-23T07:41:09;98134.21;;;13.91;56.86
21086;BME280;72320;50.082;20.000;2024-03-23T07:43:55;98138.33;;;14.48;55.94
21086;BME280;72320;50.082;20.000;2024-03-23T07:46:40;98123.67;;;14.69;55.19
21086;BME280;72320;50.082;20.000;2024-03-23T07:49:27;98115.33;;;14.58;54.68
21086;BME280;72320;50.082;20.000;2024-03-23T07:52:12;98110.83;;;14.77;54.65
21086;BME280;72320;50.082;20.000;2024-03-23T07:54:59;98114.97;;;15.20;53.73
21086;BME280;72320;50.082;20.000;2024-03-23T07:57:25;98110.94;;;15.74;53.11
21086;BME280;72320;50.082;20.000;2024-03-23T08:00:12;98105.30;;;16.33;51.63
21086;BME280;72320;50.082;20.000;2024-03-23T08:02:58;98104.08;;;16.41;50.51
21086;BME280;72320;50.082;20.000;2024-03-23T08:05:44;98102.89;;;16.51;50.13
21086;BME280;72320;50.082;20.000;2024-03-23T08:08:30;98088.10;;;16.69;49.72
21086;BME280;72320;50.082;20.000;2024-03-23T08:11:16;98076.38;;;16.75;49.33
21086;BME280;72320;50.082;20.000;2024-03-23T08:14:02;98069.98;;;16.67;48.85
21086;BME280;72320;50.082;20.000;2024-03-23T08:16:30;98064.84;;;16.61;48.39
21086;BME280;72320;50.082;20.000;2024-03-23T08:18:55;98059.27;;;16.54;48.27
21086;BME280;72320;50.082;20.000;2024-03-23T08:21:21;98060.55;;;16.86;48.10
21086;BME280;72320;50.082;20.000;2024-03-23T08:23:48;98058.58;;;17.28;47.51
21086;BME280;72320;50.082;20.000;2024-03-23T08:26:16;98060.15;;;17.61;46.98
21086;BME280;72320;50.082;20.000;2024-03-23T08:28:45;98055.77;;;17.91;46.60
21086;BME280;72320;50.082;20.000;2024-03-23T08:31:12;98051.27;;;17.88;46.19
21086;BME280;72320;50.082;20.000;2024-03-23T08:33:39;98045.83;;;17.81;45.91
21086;BME280;72320;50.082;20.000;2024-03-23T08:36:08;98041.83;;;17.75;46.20
21086;BME280;72320;50.082;20.000;2024-03-23T08:38:37;98044.94;;;17.86;46.16
21086;BME280;72320;50.082;20.000;2024-03-23T08:41:09;98045.94;;;18.04;46.00
21086;BME280;72320;50.082;20.000;2024-03-23T08:43:37;98048.03;;;18.24;45.65
21086;BME280;72320;50.082;20.000;2024-03-23T08:46:14;98042.80;;;18.42;45.19
21086;BME280;72320;50.082;20.000;2024-03-23T08:48:46;98032.92;;;18.59;44.67
21086;BME280;72320;50.082;20.000;2024-03-23T08:51:16;98019.40;;;18.55;44.19
21086;BME280;72320;50.082;20.000;2024-03-23T08:53:43;98016.98;;;18.42;44.08
21086;BME280;72320;50.082;20.000;2024-03-23T08:56:10;98015.02;;;18.15;44.09
21086;BME280;72320;50.082;20.000;2024-03-23T08:58:56;98013.40;;;17.80;43.83
21086;BME280;72320;50.082;20.000;2024-03-23T09:01:42;98006.38;;;17.58;44.16
21086;BME280;72320;50.082;20.000;2024-03-23T09:04:24;98002.40;;;17.63;44.12
21086;BME280;72320;50.082;20.000;2024-03-23T09:06:50;97991.10;;;17.59;43.81
21086;BME280;72320;50.082;20.000;2024-03-23T09:09:38;97986.61;;;17.42;43.42
21086;BME280;72320;50.082;20.000;2024-03-23T09:12:24;97980.17;;;17.44;43.14
21086;BME280;72320;50.082;20.000;2024-03-23T09:14:51;97982.77;;;17.84;42.82
21086;BME280;72320;50.082;20.000;2024-03-23T09:17:37;97980.71;;;18.51;42.18
21086;BME280;72320;50.082;20.000;2024-03-23T09:20:23;97974.84;;;19.09;41.22
21086;BME280;72320;50.082;20.000;2024-03-23T09:23:09;97965.14;;;19.39;40.64
21086;BME280;72320;50.082;20.000;2024-03-23T09:25:39;97961.52;;;19.64;40.17
21086;BME280;72320;50.082;20.000;2024-03-23T09:28:25;97961.00;;;20.03;39.59
21086;BME280;72320;50.082;20.000;2024-03-23T09:31:13;97951.42;;;20.29;39.18
21086;BME280;72320;50.082;20.000;2024-03-23T09:33:59;97950.09;;;20.26;38.96
21086;BME280;72320;50.082;20.000;2024-03-23T09:36:44;97943.75;;;20.47;38.83
21086;BME280;72320;50.082;20.000;2024-03-23T09:39:30;97942.26;;;20.68;38.60
21086;BME280;72320;50.082;20.000;2024-03-23T09:41:58;97936.14;;;20.87;38.21
21086;BME280;72320;50.082;20.000;2024-03-23T09:44:44;97933.40;;;21.04;38.10
21086;BME280;72320;50.082;20.000;2024-03-23T09:47:30;97922.86;;;21.18;37.92
21086;BME280;72320;50.082;20.000;2024-03-23T09:50:16;97921.80;;;21.21;37.70
21086;BME280;72320;50.082;20.000;2024-03-23T09:53:02;97911.89;;;21.10;37.58
21086;BME280;72320;50.082;20.000;2024-03-23T09:55:48;97907.95;;;21.08;37.58
21086;BME280;72320;50.082;20.000;2024-03-23T09:58:34;97901.05;;;21.09;37.62
21086;BME280;72320;50.082;20.000;2024-03-23T10:01:22;97893.17;;;21.02;37.40
21086;BME280;72320;50.082;20.000;2024-03-23T10:04:07;97882.20;;;21.06;37.33
21086;BME280;72320;50.082;20.000;2024-03-23T10:06:53;97873.36;;;21.13;37.33
21086;BME280;72320;50.082;20.000;2024-03-23T10:09:40;97867.39;;;21.15;37.20
21086;BME280;72320;50.082;20.000;2024-03-23T10:12:26;97855.38;;;21.12;37.23
21086;BME280;72320;50.082;20.000;2024-03-23T10:15:23;97856.92;;;20.97;37.22
21086;BME280;72320;50.082;20.000;2024-03-23T10:18:19;97852.95;;;20.77;37.23
21086;BME280;72320;50.082;20.000;2024-03-23T10:23:50;97845.73;;;20.49;37.58
21086;BME280;72320;50.082;20.000;2024-03-23T10:26:35;97837.66;;;20.49;37.61
21086;BME280;72320;50.082;20.000;2024-03-23T10:29:21;97836.39;;;20.34;37.58
21086;BME280;72320;50.082;20.000;2024-03-23T10:32:12;97833.06;;;20.05;37.39
21086;BME280;72320;50.082;20.000;2024-03-23T10:35:16;97824.56;;;19.93;37.15
21086;BME280;72320;50.082;20.000;2024-03-23T10:38:05;97814.75;;;19.67;36.63
21086;BME280;72320;50.082;20.000;2024-03-23T10:40:35;97803.64;;;19.52;36.45
21086;BME280;72320;50.082;20.000;2024-03-23T10:43:23;97798.30;;;19.37;36.12
21086;BME280;72320;50.082;20.000;2024-03-23T10:46:10;97791.52;;;19.25;36.04
21086;BME280;72320;50.082;20.000;2024-03-23T10:48:51;97780.40;;;19.19;36.11
21086;BME280;72320;50.082;20.000;2024-03-23T10:51:37;97763.70;;;19.32;35.89
21086;BME280;72320;50.082;20.000;2024-03-23T10:54:25;97749.20;;;19.45;35.20
21086;BME280;72320;50.082;20.000;2024-03-23T10:57:17;97745.52;;;19.58;34.65
21086;BME280;72320;50.082;20.000;2024-03-23T11:00:06;97736.17;;;19.60;34.03
21086;BME280;72320;50.082;20.000;2024-03-23T11:02:52;97732.89;;;19.53;33.86
21086;BME280;72320;50.082;20.000;2024-03-23T11:05:38;97723.27;;;19.47;33.53
21086;BME280;72320;50.082;20.000;2024-03-23T11:08:37;97718.45;;;19.44;33.11
21086;BME280;72320;50.082;20.000;2024-03-23T11:11:24;97714.66;;;19.45;33.00
21086;BME280;72320;50.082;20.000;2024-03-23T11:13:59;97714.88;;;19.49;32.85
21086;BME280;72320;50.082;20.000;2024-03-23T11:16:45;97709.61;;;19.42;32.24
21086;BME280;72320;50.082;20.000;2024-03-23T11:19:35;97700.19;;;19.47;32.09
21086;BME280;72320;50.082;20.000;2024-03-23T11:22:43;97702.20;;;19.38;32.03
21086;BME280;72320;50.082;20.000;2024-03-23T11:25:29;97693.38;;;19.50;32.10
21086;BME280;72320;50.082;20.000;2024-03-23T11:28:15;97688.66;;;19.46;32.14
21086;BME280;72320;50.082;20.000;2024-03-23T11:30:42;97685.95;;;19.68;32.25
21086;BME280;72320;50.082;20.000;2024-03-23T11:33:27;97678.58;;;19.88;31.77
21086;BME280;72320;50.082;20.000;2024-03-23T11:35:54;97675.46;;;19.92;31.52
21086;BME280;72320;50.082;20.000;2024-03-23T11:38:20;97661.98;;;20.08;31.29
21086;BME280;72320;50.082;20.000;2024-03-23T11:40:49;97651.61;;;20.20;31.22
21086;BME280;72320;50.082;20.000;2024-03-23T11:43:20;97645.39;;;20.44;31.01
21086;BME280;72320;50.082;20.000;2024-03-23T11:45:50;97637.94;;;20.73;30.61
21086;BME280;72320;50.082;20.000;2024-03-23T11:48:23;97632.73;;;21.07;30.18
21086;BME280;72320;50.082;20.000;2024-03-23T11:50:54;97626.52;;;21.44;29.92
21086;BME280;72320;50.082;20.000;2024-03-23T11:53:24;97620.46;;;21.75;29.74
21086;BME280;72320;50.082;20.000;2024-03-23T11:55:58;97614.27;;;21.96;29.36
21086;BME280;72320;50.082;20.000;2024-03-23T11:58:26;97609.83;;;21.87;29.16
21086;BME280;72320;50.082;20.000;2024-03-23T12:01:02;97605.23;;;22.02;29.09
21086;BME280;72320;50.082;20.000;2024-03-23T12:03:30;97599.46;;;22.43;29.15
21086;BME280;72320;50.082;20.000;2024-03-23T12:05:59;97583.89;;;22.83;28.78
21086;BME280;72320;50.082;20.000;2024-03-23T12:08:36;97579.45;;;22.90;28.37
21086;BME280;72320;50.082;20.000;2024-03-23T12:11:16;97559.89;;;22.71;28.23
21086;BME280;72320;50.082;20.000;2024-03-23T12:14:03;97549.20;;;22.47;28.27
21086;BME280;72320;50.082;20.000;2024-03-23T12:16:44;97540.48;;;22.59;28.52
21086;BME280;72320;50.082;20.000;2024-03-23T12:19:30;97535.86;;;22.69;28.54
21086;BME280;72320;50.082;20.000;2024-03-23T12:22:21;97521.27;;;22.51;28.42
21086;BME280;72320;50.082;20.000;2024-03-23T12:25:02;97509.63;;;22.10;28.38
21086;BME280;72320;50.082;20.000;2024-03-23T12:27:49;97507.48;;;21.77;28.67
21086;BME280;72320;50.082;20.000;2024-03-23T12:30:40;97500.80;;;21.42;29.02
21086;BME280;72320;50.082;20.000;2024-03-23T12:33:26;97494.24;;;21.00;29.69
21086;BME280;72320;50.082;20.000;2024-03-23T12:36:12;97480.92;;;20.83;30.08
21086;BME280;72320;50.082;20.000;2024-03-23T12:38:58;97475.98;;;20.79;30.37
21086;BME280;72320;50.082;20.000;2024-03-23T12:41:44;97469.31;;;20.75;30.73
21086;BME280;72320;50.082;20.000;2024-03-23T12:44:30;97463.41;;;20.71;30.91
21086;BME280;72320;50.082;20.000;2024-03-23T12:47:16;97464.23;;;20.71;30.98
21086;BME280;72320;50.082;20.000;2024-03-23T12:50:02;97467.86;;;20.77;30.96
21086;BME280;72320;50.082;20.000;2024-03-23T12:52:48;97459.34;;;20.80;30.34
21086;BME280;72320;50.082;20.000;2024-03-23T12:55:37;97450.10;;;20.85;30.05
21086;BME280;72320;50.082;20.000;2024-03-23T12:58:23;97442.67;;;20.76;29.64
21086;BME280;72320;50.082;20.000;2024-03-23T13:01:09;97438.54;;;20.78;29.80
21086;BME280;72320;50.082;20.000;2024-03-23T13:03:56;97429.69;;;20.76;30.00
21086;BME280;72320;50.082;20.000;2024-03-23T13:06:41;97427.47;;;20.77;30.20
21086;BME280;72320;50.082;20.000;2024-03-23T13:09:27;97416.30;;;20.88;30.17
21086;BME280;72320;50.082;20.000;2024-03-23T13:12:13;97402.48;;;20.75;30.22
21086;BME280;72320;50.082;20.000;2024-03-23T13:15:00;97393.09;;;20.72;30.47
21086;BME280;72320;50.082;20.000;2024-03-23T13:17:46;97383.35;;;20.66;30.46
21086;BME280;72320;50.082;20.000;2024-03-23T13:20:35;97380.15;;;20.69;30.48
21086;BME280;72320;50.082;20.000;2024-03-23T13:23:21;97372.08;;;20.68;30.67
21086;BME280;72320;50.082;20.000;2024-03-23T13:25:55;97362.36;;;20.71;30.92
21086;BME280;72320;50.082;20.000;2024-03-23T13:28:41;97357.45;;;20.73;30.97
21086;BME280;72320;50.082;20.000;2024-03-23T13:31:27;97349.45;;;20.77;30.86
21086;BME280;72320;50.082;20.000;2024-03-23T13:34:14;97346.43;;;20.78;30.83
21086;BME280;72320;50.082;20.000;2024-03-23T13:37:00;97338.20;;;20.82;30.75
21086;BME280;72320;50.082;20.000;2024-03-23T13:39:46;97343.42;;;20.88;30.88
21086;BME280;72320;50.082;20.000;2024-03-23T13:42:32;97343.27;;;21.08;30.84
21086;BME280;72320;50.082;20.000;2024-03-23T13:45:19;97332.90;;;21.17;31.11
21086;BME280;72320;50.082;20.000;2024-03-23T13:48:06;97330.41;;;21.28;31.41
21086;BME280;72320;50.082;20.000;2024-03-23T13:51:03;97331.27;;;21.34;31.39
21086;BME280;72320;50.082;20.000;2024-03-23T13:53:49;97326.42;;;21.25;31.30
21086;BME280;72320;50.082;20.000;2024-03-23T13:56:35;97319.83;;;21.12;31.03
21086;BME280;72320;50.082;20.000;2024-03-23T13:59:09;97321.14;;;21.10;31.18
21086;BME280;72320;50.082;20.000;2024-03-23T14:01:58;97319.14;;;21.24;31.21
21086;BME280;72320;50.082;20.000;2024-03-23T14:04:44;97319.52;;;21.54;31.15
21086;BME280;72320;50.082;20.000;2024-03-23T14:07:29;97318.65;;;21.83;30.84
21086;BME280;72320;50.082;20.000;2024-03-23T14:10:15;97315.95;;;21.86;30.64
21086;BME280;72320;50.082;20.000;2024-03-23T14:13:04;97315.42;;;21.81;30.42
21086;BME280;72320;50.082;20.000;2024-03-23T14:15:53;97307.59;;;21.68;30.12
21086;BME280;72320;50.082;20.000;2024-03-23T14:18:40;97303.95;;;21.41;28.99
21086;BME280;72320;50.082;20.000;2024-03-23T14:21:25;97304.98;;;21.27;28.33
21086;BME280;72320;50.082;20.000;2024-03-23T14:24:11;97301.58;;;21.19;28.16
21086;BME280;72320;50.082;20.000;2024-03-23T14:26:57;97302.96;;;21.16;28.24
21086;BME280;72320;50.082;20.000;2024-03-23T14:29:46;97299.77;;;21.12;27.98
21086;BME280;72320;50.082;20.000;2024-03-23T14:32:33;97305.84;;;21.00;28.27
21086;BME280;72320;50.082;20.000;2024-03-23T14:35:21;97307.98;;;20.75;28.50
21086;BME280;72320;50.082;20.000;2024-03-23T14:38:07;97321.31;;;20.44;28.72
21086;BME280;72320;50.082;20.000;2024-03-23T14:40:53;97321.45;;;20.17;28.57
21086;BME280;72320;50.082;20.000;2024-03-23T14:43:39;97337.24;;;19.93;28.76
21086;BME280;72320;50.082;20.000;2024-03-23T14:46:24;97408.41;;;19.61;30.24
21086;BME280;72320;50.082;20.000;2024-03-23T14:49:15;97506.43;;;18.48;37.05
21086;BME280;72320;50.082;20.000;2024-03-23T14:51:43;97541.68;;;16.34;45.05
21086;BME280;72320;50.082;20.000;2024-03-23T14:54:09;97561.09;;;14.65;49.78
21086;BME280;72320;50.082;20.000;2024-03-23T14:56:35;97568.38;;;13.75;52.81
21086;BME280;72320;50.082;20.000;2024-03-23T14:59:02;97585.12;;;13.24;54.79